Flight Track Log - Related Links

Times and Time Zones

All times are in EDT time to prevent confusion due to time zone crossing. See the PSC478 flight status page for this flight to view local times or setup timezone preferences in your user account.

Time Position Orientation Groundspeed Altitude Reporting Facility
EDT Latitude Longitude Course Direction KTS MPH feet Rate Location/Type
Thu 06:11:58 PM 48.1667 -65.9167 291° West 170 196 10,900  Level Montreal Center
Thu 06:12:00 PM 48.1824 -66.0110 284° West  Level FlightAware Approximate
Thu 06:12:58 PM 48.1833 -66.0000 287° West 180 207 12,100  Level Montreal Center
Thu 06:13:00 PM 48.1952 -66.0924 287° West  Level FlightAware Approximate
Thu 06:13:58 PM 48.2000 -66.0667 291° West 180 207 13,600  Level Montreal Center
Thu 06:14:00 PM 48.2114 -66.1731 287° West  Level FlightAware Approximate
Thu 06:14:58 PM 48.2167 -66.1333 291° West 180 207 14,800  Level Montreal Center
Thu 06:15:00 PM 48.2275 -66.2539 287° West  Level FlightAware Approximate
Thu 06:15:58 PM 48.2167 -66.2167 270° West 190 219 15,800  Level Montreal Center
Thu 06:16:00 PM 48.2443 -66.3343 288° West  Level FlightAware Approximate
Thu 06:16:58 PM 48.2333 -66.2833 291° West 200 230 16,100  Level Montreal Center
Thu 06:18:21 PM 48.2667 -66.4667 285° West 240 276 16,000 -42 Descending Moncton Center
Thu 06:19:21 PM 48.2833 -66.5667 284° West 250 288 16,000  Level Moncton Center
Thu 06:20:21 PM 48.3000 -66.6667 284° West 250 288 16,000  Level Moncton Center
Thu 06:21:21 PM 48.3333 -66.7667 297° West 250 288 16,000  Level Moncton Center
Thu 06:22:21 PM 48.3333 -66.8667 270° West 250 288 16,000  Level Moncton Center
Thu 06:23:21 PM 48.3167 -66.9667 256° West 250 288 16,000  Level Moncton Center
Thu 06:24:21 PM 48.3333 -67.0667 284° West 250 288 16,000  Level Moncton Center
Thu 06:25:21 PM 48.3333 -67.1667 270° West 250 288 16,000  Level Moncton Center
Thu 06:26:21 PM 48.3500 -67.3000 281° West 250 288 16,000 -200 Level Moncton Center
Thu 06:27:21 PM 48.3500 -67.4000 270° West 250 288 15,600 -850 Descending Moncton Center
Thu 06:28:21 PM 48.3667 -67.5167 282° West 270 311 14,300 -1,350 Descending Moncton Center
Thu 06:29:21 PM 48.3667 -67.6167 270° West 270 311 12,900 -1,423 Descending Moncton Center
Thu 06:29:58 PM 48.3667 -67.6667 270° West 270 311 12,000 -309 Descending Montreal Center
Thu 06:30:58 PM 48.3500 -67.7333 249° West 250 288 12,400 650 Climbing Montreal Center
Thu 06:31:58 PM 48.3333 -67.8167 253° West 220 253 13,300 800 Climbing Montreal Center
Thu 06:32:58 PM 48.3000 -67.9000 239° Southwest 220 253 14,000 650 Climbing Montreal Center
Thu 06:33:58 PM 48.2667 -67.9833 239° Southwest 220 253 14,600 650 Climbing Montreal Center
Thu 06:34:58 PM 48.2333 -68.0833 243° Southwest 220 253 15,300 650 Climbing Montreal Center
Thu 06:35:58 PM 48.2000 -68.1500 233° Southwest 220 253 15,900 350 Climbing Montreal Center
Thu 06:36:58 PM 48.1667 -68.2500 243° Southwest 230 265 16,000 50 Climbing Montreal Center
Thu 06:37:58 PM 48.1500 -68.3333 253° West 240 276 16,000  Level Montreal Center
Thu 06:38:58 PM 48.1000 -68.4167 228° Southwest 240 276 16,000  Level Montreal Center
Thu 06:39:58 PM 48.0667 -68.5167 244° Southwest 250 288 16,000  Level Montreal Center
Thu 06:40:58 PM 48.0333 -68.6000 239° Southwest 250 288 16,000  Level Montreal Center
Thu 06:41:58 PM 48.0000 -68.6833 239° Southwest 250 288 16,000  Level Montreal Center
Thu 06:42:58 PM 47.9667 -68.7833 244° Southwest 240 276 16,000  Level Montreal Center
Thu 06:43:58 PM 47.9333 -68.8667 239° Southwest 250 288 16,000  Level Montreal Center
Thu 06:44:58 PM 47.9000 -68.9500 239° Southwest 240 276 16,000  Level Montreal Center
Thu 06:45:58 PM 47.8500 -69.0500 233° Southwest 240 276 16,000  Level Montreal Center
Thu 06:46:58 PM 47.8333 -69.1333 253° West 240 276 16,000  Level Montreal Center
Thu 06:47:58 PM 47.8000 -69.2167 239° Southwest 240 276 16,000  Level Montreal Center
Thu 06:48:58 PM 47.7500 -69.3167 233° Southwest 250 288 16,000  Level Montreal Center
Thu 06:49:58 PM 47.7333 -69.4000 253° West 240 276 16,000  Level Montreal Center
Thu 06:50:58 PM 47.7000 -69.4667 233° Southwest 240 276 16,000  Level Montreal Center
Thu 06:51:58 PM 47.6500 -69.5500 228° Southwest 240 276 16,000  Level Montreal Center
Thu 06:52:58 PM 47.6167 -69.6667 247° West 240 276 16,000  Level Montreal Center
Thu 06:53:58 PM 47.6000 -69.7333 250° West 250 288 16,000  Level Montreal Center
Thu 06:54:58 PM 47.5500 -69.8167 228° Southwest 250 288 16,000  Level Montreal Center
Thu 06:55:58 PM 47.5167 -69.9167 244° Southwest 250 288 16,000  Level Montreal Center
Thu 06:56:58 PM 47.4833 -70.0000 239° Southwest 250 288 16,000  Level Montreal Center
Thu 06:57:58 PM 47.4500 -70.1000 244° Southwest 250 288 16,000  Level Montreal Center
Thu 06:58:58 PM 47.4000 -70.1833 228° Southwest 250 288 16,000  Level Montreal Center
Thu 06:59:58 PM 47.3500 -70.2667 228° Southwest 250 288 16,000  Level Montreal Center
Thu 07:01:58 PM 47.2667 -70.4167 231° Southwest 250 288 16,000 -233 Level Montreal Center
Thu 07:02:58 PM 47.2167 -70.5000 229° Southwest 260 299 15,300 -1,100 Descending Montreal Center
Thu 07:03:58 PM 47.1667 -70.5833 229° Southwest 280 322 13,800 -1,450 Descending Montreal Center
Thu 07:04:58 PM 47.1167 -70.6833 234° Southwest 280 322 12,400 -1,450 Descending Montreal Center
Thu 07:05:58 PM 47.0833 -70.7667 240° Southwest 270 311 10,900 -1,500 Descending Montreal Center
Thu 07:07:58 PM 47.0000 -70.9500 236° Southwest 260 299 7,900 -1,467 Descending Montreal Center
Thu 07:08:58 PM 46.9667 -71.0500 244° Southwest 260 299 6,500 -950 Descending Montreal Center
Thu 07:09:58 PM 46.9500 -71.1167 250° West 240 276 6,000 -250 Descending Montreal Center
Thu 07:10:58 PM 46.9167 -71.2167 244° Southwest 230 265 6,000  Level Montreal Center
Thu 07:11:58 PM 46.8833 -71.3000 240° Southwest 230 265 6,000 -150 Level Montreal Center
Thu 07:12:58 PM 46.8500 -71.3833 240° Southwest 220 253 5,700 -550 Descending Montreal Center
Thu 07:13:58 PM 46.8167 -71.4500 234° Southwest 210 242 4,900 -850 Descending Montreal Center
Thu 07:14:58 PM 46.7833 -71.5333 240° Southwest 210 242 4,000 -750 Descending Montreal Center
Thu 07:15:58 PM 46.7500 -71.5667 214° Southwest 190 219 3,400 -850 Descending Montreal Center
Thu 07:16:58 PM 46.7000 -71.5167 146° Southeast 170 196 2,300 -850 Descending Montreal Center
Thu 07:17:58 PM 46.7000 -71.4667 90° East 110 127 1,700 -350 Descending Montreal Center
Thu 07:18:58 PM 46.7333 -71.4333 34° Northeast 100 115 1,600 -400 Descending Montreal Center
Thu 07:19:58 PM 46.7500 -71.4167 34° Northeast 100 115 900 -650 Descending Montreal Center
Thu 07:20:58 PM 46.7667 -71.3833 54° Northeast 100 115 300 -600 Descending Montreal Center
Thu 07:22:00 PM 46.8074 -71.3170 48° Northeast  Level Estimated
Thu 07:29:00 PM 47.0823 -70.8652 48° Northeast  Level Estimated
Thu 07:30:00 PM 47.1214 -70.8002 48° Northeast  Level Estimated
Thu 07:31:00 PM 47.1605 -70.7352 49° Northeast  Level Estimated
Thu 07:32:00 PM 47.1996 -70.6701 49° Northeast  Level Estimated
Thu 07:33:00 PM 47.2386 -70.6048 49° Northeast  Level Estimated
Thu 07:34:00 PM 47.2776 -70.5395 49° Northeast  Level Estimated
Thu 07:35:00 PM 47.3165 -70.4741 49° Northeast  Level Estimated
Thu 07:36:00 PM 47.3554 -70.4086 49° Northeast  Level Estimated
Thu 07:37:00 PM 47.3943 -70.3430 49° Northeast  Level Estimated
Thu 07:38:00 PM 47.4331 -70.2773 49° Northeast  Level Estimated
Thu 07:39:00 PM 47.4719 -70.2115 49° Northeast  Level Estimated
Thu 07:40:00 PM 47.5107 -70.1456 49° Northeast  Level Estimated
Thu 07:41:00 PM 47.5494 -70.0796 49° Northeast  Level Estimated
Thu 07:42:00 PM 47.5881 -70.0135 49° Northeast  Level Estimated
Thu 07:43:00 PM 47.6267 -69.9473 49° Northeast  Level Estimated
Thu 07:44:00 PM 47.6653 -69.8810 49° Northeast  Level Estimated
Thu 07:45:00 PM 47.7039 -69.8147 49° Northeast  Level Estimated
Thu 07:46:00 PM 47.7424 -69.7482 49° Northeast  Level Estimated
Thu 07:47:00 PM 47.7809 -69.6816 49° Northeast  Level Estimated
Thu 07:48:00 PM 47.8193 -69.6149 49° Northeast  Level Estimated
Thu 07:49:00 PM 47.8577 -69.5481 49° Northeast  Level Estimated
Thu 07:50:00 PM 47.8961 -69.4812 49° Northeast  Level Estimated
Thu 07:51:00 PM 47.9344 -69.4143 49° Northeast  Level Estimated
Thu 07:52:00 PM 47.9727 -69.3472 50° Northeast  Level Estimated
Thu 07:53:00 PM 48.0110 -69.2800 50° Northeast  Level Estimated
Thu 07:54:00 PM 48.0492 -69.2128 50° Northeast  Level Estimated
Thu 07:55:00 PM 48.0874 -69.1454 50° Northeast  Level Estimated
Thu 07:56:00 PM 48.1255 -69.0779 50° Northeast  Level Estimated
Thu 07:57:00 PM 48.1636 -69.0103 50° Northeast  Level Estimated
Thu 07:58:00 PM 48.2017 -68.9426 50° Northeast  Level Estimated
Thu 07:59:00 PM 48.2397 -68.8749 50° Northeast  Level Estimated
Thu 08:00:00 PM 48.2777 -68.8070 50° Northeast  Level Estimated
Thu 08:01:00 PM 48.3156 -68.7390 50° Northeast  Level Estimated
Thu 08:02:00 PM 48.3535 -68.6709 50° Northeast  Level Estimated
Thu 08:03:00 PM 48.3913 -68.6028 50° Northeast  Level Estimated
Thu 08:04:00 PM 48.4292 -68.5345 50° Northeast  Level Estimated

Login

Don't have an account? Register now (free) for customized features, flight alerts, and more!